Aérodrome :
LOGIN :

S'inscrire | Disclaimer

   EN    FR    IT 

 










Légende :    VFR   VFR Marginal   IFR   IFR Intensif   IFR Très Intensif
Visi : 
Plafond : 
>= 8 km
>= 3000ft
5 à 8 km
1000 à 3000 ft
1500m à 5 km
500 à 1000 ft
800 à 1500m
200 à 500 ft
< 800m
< 200 ft
Symboles :   Orages  Brouillard  Fortes neiges  Fortes précipitations  Vent > 20 kt
SIGMETs :   Divers  Orages  Givrage  Turbulence  Onde Orograph.  Cendres Volcan.






- Altitude de l'aérodrome : 126 ft
- Code IATA : WIC


EGPC - Wick

DERNIER METAR :
  • 200620Z AUTO 20010KT 180V240 9999 OVC018/// 08/06 Q1034

METARs EXPIRÉS :
  • 200550Z AUTO 19009KT 150V220 9999 BKN017/// 08/06 Q1034
  • 200520Z AUTO 19006KT 130V230 9999 NCD 08/06 Q1033
  • 200450Z AUTO 26014KT 9999 NCD 10/07 Q1033
  • 200420Z AUTO 22011KT 180V250 9999 NCD 07/06 Q1033
  • 200350Z AUTO 19011KT 9999 NCD 07/05 Q1034

TAF TAF EGPC
Valide du 20 à 06h jusqu'au 20 à 15h UTC


200457Z 2006/2015 24013KT 9999 SCT020
TEMPO 2006/2015 25016G28KT
PROB30
TEMPO 2009/2015 6000 -DZ BKN012
ATIS : +44 1955 607 596



MET'MAP, la Météo Aéronautique d'un coup d'oeil ! - Copyright ORBIFLY Décembre 2007 - Disclaimer

ORBIFLY MET'MAP TEAM :

Programmation & Développement : Alexandra Zaïnal
Sur une idée originale de : Baudouin d'Aumeries
Assistance à la programmation : Marc-Olivier Méhu
Soutien technique & logistique : Manuel Goepfert

Contact : metmap@orbifly.com




SOURCES & CREDITS :

   NOAA